sensor_id;sensor_type;location;lat;lon;timestamp;pressure;altitude;pressure_sealevel;temperature;humidity
54666;BME280;40566;50.006;36.180;2023-03-23T00:02:40;99898.47;;;6.55;60.31
54666;BME280;40566;50.006;36.180;2023-03-23T00:07:41;99904.50;;;6.51;60.30
54666;BME280;40566;50.006;36.180;2023-03-23T00:12:45;99897.69;;;6.47;60.50
54666;BME280;40566;50.006;36.180;2023-03-23T00:17:49;99900.31;;;6.42;60.52
54666;BME280;40566;50.006;36.180;2023-03-23T00:22:51;99896.84;;;6.42;60.50
54666;BME280;40566;50.006;36.180;2023-03-23T00:27:51;99898.59;;;6.40;60.64
54666;BME280;40566;50.006;36.180;2023-03-23T00:32:52;99908.00;;;6.41;60.77
54666;BME280;40566;50.006;36.180;2023-03-23T00:37:53;99898.59;;;6.40;60.71
54666;BME280;40566;50.006;36.180;2023-03-23T00:42:53;99898.69;;;6.30;60.89
54666;BME280;40566;50.006;36.180;2023-03-23T00:47:54;99898.69;;;6.27;60.78
54666;BME280;40566;50.006;36.180;2023-03-23T00:52:54;99889.31;;;6.23;60.90
54666;BME280;40566;50.006;36.180;2023-03-23T00:57:56;99901.31;;;6.23;60.91
54666;BME280;40566;50.006;36.180;2023-03-23T01:02:57;99885.94;;;6.13;60.83
54666;BME280;40566;50.006;36.180;2023-03-23T01:07:58;99898.84;;;6.10;60.83
54666;BME280;40566;50.006;36.180;2023-03-23T01:12:59;99894.59;;;6.06;60.98
54666;BME280;40566;50.006;36.180;2023-03-23T01:18:01;99892.03;;;6.00;60.96
54666;BME280;40566;50.006;36.180;2023-03-23T01:23:02;99895.50;;;5.94;60.90
54666;BME280;40566;50.006;36.180;2023-03-23T01:28:03;99892.09;;;5.92;61.12
54666;BME280;40566;50.006;36.180;2023-03-23T01:33:04;99904.09;;;5.87;61.24
54666;BME280;40566;50.006;36.180;2023-03-23T01:38:05;99906.69;;;5.83;61.04
54666;BME280;40566;50.006;36.180;2023-03-23T01:43:13;99902.44;;;5.77;61.27
54666;BME280;40566;50.006;36.180;2023-03-23T01:48:23;99899.91;;;5.71;61.29
54666;BME280;40566;50.006;36.180;2023-03-23T01:53:29;99897.34;;;5.69;61.37
54666;BME280;40566;50.006;36.180;2023-03-23T01:58:33;99901.59;;;5.70;61.25
54666;BME280;40566;50.006;36.180;2023-03-23T02:03:36;99900.75;;;5.68;61.29
54666;BME280;40566;50.006;36.180;2023-03-23T02:08:40;99899.94;;;5.63;61.50
54666;BME280;40566;50.006;36.180;2023-03-23T02:13:44;99906.75;;;5.63;61.63
54666;BME280;40566;50.006;36.180;2023-03-23T02:18:53;99907.66;;;5.59;61.55
54666;BME280;40566;50.006;36.180;2023-03-23T02:35:30;99922.28;;;5.38;61.81
54666;BME280;40566;50.006;36.180;2023-03-23T02:40:48;99912.06;;;5.33;61.71
54666;BME280;40566;50.006;36.180;2023-03-23T02:45:50;99916.31;;;5.33;61.78
54666;BME280;40566;50.006;36.180;2023-03-23T02:50:52;99918.91;;;5.28;61.86
54666;BME280;40566;50.006;36.180;2023-03-23T02:55:55;99914.66;;;5.27;61.83
54666;BME280;40566;50.006;36.180;2023-03-23T03:06:32;99918.94;;;5.18;61.97
54666;BME280;40566;50.006;36.180;2023-03-23T03:11:35;99920.66;;;5.15;61.83
54666;BME280;40566;50.006;36.180;2023-03-23T03:21:46;99933.47;;;5.12;62.01
54666;BME280;40566;50.006;36.180;2023-03-23T03:26:52;99932.63;;;5.07;62.17
54666;BME280;40566;50.006;36.180;2023-03-23T03:31:58;99931.78;;;5.08;62.15
54666;BME280;40566;50.006;36.180;2023-03-23T03:37:00;99934.34;;;5.07;62.12
54666;BME280;40566;50.006;36.180;2023-03-23T03:42:01;99931.81;;;5.02;62.05
54666;BME280;40566;50.006;36.180;2023-03-23T03:47:02;99932.66;;;4.98;62.28
54666;BME280;40566;50.006;36.180;2023-03-23T03:52:02;99928.38;;;4.99;62.43
54666;BME280;40566;50.006;36.180;2023-03-23T03:57:03;99932.66;;;5.00;62.33
54666;BME280;40566;50.006;36.180;2023-03-23T04:02:03;99937.78;;;5.03;62.27
54666;BME280;40566;50.006;36.180;2023-03-23T04:07:04;99942.06;;;5.02;62.45
54666;BME280;40566;50.006;36.180;2023-03-23T04:12:05;99933.50;;;5.03;62.37
54666;BME280;40566;50.006;36.180;2023-03-23T04:17:06;99946.28;;;5.09;62.31
54666;BME280;40566;50.006;36.180;2023-03-23T04:22:09;99952.28;;;5.16;62.16
54666;BME280;40566;50.006;36.180;2023-03-23T04:27:10;99955.66;;;5.21;62.41
54666;BME280;40566;50.006;36.180;2023-03-23T04:32:13;99957.38;;;5.27;62.32
54666;BME280;40566;50.006;36.180;2023-03-23T04:37:14;99954.81;;;5.31;62.52
54666;BME280;40566;50.006;36.180;2023-03-23T04:42:15;99956.44;;;5.45;62.42
54666;BME280;40566;50.006;36.180;2023-03-23T04:47:15;99956.44;;;5.54;62.45
54666;BME280;40566;50.006;36.180;2023-03-23T04:52:18;99970.88;;;5.72;63.42
54666;BME280;40566;50.006;36.180;2023-03-23T04:57:20;99964.88;;;5.78;63.01
54666;BME280;40566;50.006;36.180;2023-03-23T05:02:21;99965.66;;;5.93;63.06
54666;BME280;40566;50.006;36.180;2023-03-23T05:07:21;99963.03;;;6.07;63.02
54666;BME280;40566;50.006;36.180;2023-03-23T05:12:22;99961.28;;;6.19;63.02
54666;BME280;40566;50.006;36.180;2023-03-23T05:17:23;99960.34;;;6.30;62.91
54666;BME280;40566;50.006;36.180;2023-03-23T05:22:27;99965.38;;;6.41;62.99
54666;BME280;40566;50.006;36.180;2023-03-23T05:27:28;99967.84;;;6.53;62.93
54666;BME280;40566;50.006;36.180;2023-03-23T05:32:30;99967.75;;;6.67;63.07
54666;BME280;40566;50.006;36.180;2023-03-23T05:37:31;99975.31;;;6.83;62.89
54666;BME280;40566;50.006;36.180;2023-03-23T05:42:33;99976.94;;;6.96;62.81
54666;BME280;40566;50.006;36.180;2023-03-23T05:47:35;99969.06;;;7.11;62.68
54666;BME280;40566;50.006;36.180;2023-03-23T05:52:36;99979.16;;;7.28;62.60
54666;BME280;40566;50.006;36.180;2023-03-23T05:57:37;99976.38;;;7.48;62.60
54666;BME280;40566;50.006;36.180;2023-03-23T06:02:37;99981.31;;;7.68;62.70
54666;BME280;40566;50.006;36.180;2023-03-23T06:07:38;99977.75;;;7.79;62.43
54666;BME280;40566;50.006;36.180;2023-03-23T06:12:40;99977.59;;;7.89;62.65
54666;BME280;40566;50.006;36.180;2023-03-23T06:17:41;99976.50;;;8.07;62.33
54666;BME280;40566;50.006;36.180;2023-03-23T06:22:42;99978.81;;;8.27;62.10
54666;BME280;40566;50.006;36.180;2023-03-23T06:27:43;99985.31;;;8.53;61.89
54666;BME280;40566;50.006;36.180;2023-03-23T06:32:44;99984.13;;;8.74;61.49
54666;BME280;40566;50.006;36.180;2023-03-23T06:37:47;99988.19;;;8.89;61.25
54666;BME280;40566;50.006;36.180;2023-03-23T06:42:48;99997.31;;;9.08;61.06
54666;BME280;40566;50.006;36.180;2023-03-23T06:47:48;100005.50;;;9.30;60.62
54666;BME280;40566;50.006;36.180;2023-03-23T06:52:50;99997.38;;;9.50;60.27
54666;BME280;40566;50.006;36.180;2023-03-23T06:57:51;99994.44;;;9.67;60.22
54666;BME280;40566;50.006;36.180;2023-03-23T07:02:51;100007.75;;;9.91;59.85
54666;BME280;40566;50.006;36.180;2023-03-23T07:07:52;100009.16;;;10.07;59.50
54666;BME280;40566;50.006;36.180;2023-03-23T07:12:53;100010.41;;;10.28;59.08
54666;BME280;40566;50.006;36.180;2023-03-23T07:17:53;100009.91;;;10.51;58.59
54666;BME280;40566;50.006;36.180;2023-03-23T07:22:55;100000.00;;;10.70;58.08
54666;BME280;40566;50.006;36.180;2023-03-23T07:27:56;100001.13;;;10.95;57.66
54666;BME280;40566;50.006;36.180;2023-03-23T07:32:57;100000.53;;;11.18;56.97
54666;BME280;40566;50.006;36.180;2023-03-23T07:37:58;99996.41;;;11.43;56.51
54666;BME280;40566;50.006;36.180;2023-03-23T07:42:59;99993.91;;;11.70;55.73
54666;BME280;40566;50.006;36.180;2023-03-23T07:48:01;99991.34;;;12.00;55.18
54666;BME280;40566;50.006;36.180;2023-03-23T07:53:01;99993.22;;;12.24;54.72
54666;BME280;40566;50.006;36.180;2023-03-23T07:58:02;99995.19;;;12.44;54.42
54666;BME280;40566;50.006;36.180;2023-03-23T08:03:05;99975.44;;;12.67;53.86
54666;BME280;40566;50.006;36.180;2023-03-23T08:08:06;99986.66;;;12.94;53.10
54666;BME280;40566;50.006;36.180;2023-03-23T08:13:07;99980.50;;;13.22;52.90
54666;BME280;40566;50.006;36.180;2023-03-23T08:18:10;99979.03;;;13.40;52.47
54666;BME280;40566;50.006;36.180;2023-03-23T08:23:10;99981.88;;;13.57;51.77
54666;BME280;40566;50.006;36.180;2023-03-23T08:28:11;99973.25;;;13.80;51.08
54666;BME280;40566;50.006;36.180;2023-03-23T08:33:14;99969.09;;;13.98;50.84
54666;BME280;40566;50.006;36.180;2023-03-23T08:38:14;99971.13;;;14.36;50.20
54666;BME280;40566;50.006;36.180;2023-03-23T08:43:15;99959.41;;;14.68;49.92
54666;BME280;40566;50.006;36.180;2023-03-23T08:48:16;99960.03;;;14.95;49.12
54666;BME280;40566;50.006;36.180;2023-03-23T08:53:16;99955.53;;;14.99;49.02
54666;BME280;40566;50.006;36.180;2023-03-23T08:58:17;99950.59;;;15.32;48.39
54666;BME280;40566;50.006;36.180;2023-03-23T09:03:18;99954.63;;;15.39;48.24
54666;BME280;40566;50.006;36.180;2023-03-23T09:08:19;99941.41;;;15.63;47.85
54666;BME280;40566;50.006;36.180;2023-03-23T09:13:20;99941.66;;;15.96;47.19
54666;BME280;40566;50.006;36.180;2023-03-23T09:18:20;99937.97;;;16.19;47.16
54666;BME280;40566;50.006;36.180;2023-03-23T09:23:22;99930.63;;;17.15;45.52
54666;BME280;40566;50.006;36.180;2023-03-23T09:28:22;99919.69;;;24.74;31.90
54666;BME280;40566;50.006;36.180;2023-03-23T09:33:24;99895.66;;;28.33;27.86
54666;BME280;40566;50.006;36.180;2023-03-23T09:38:24;99898.19;;;31.05;25.19
54666;BME280;40566;50.006;36.180;2023-03-23T09:43:51;99893.69;;;31.45;25.66
54666;BME280;40566;50.006;36.180;2023-03-23T09:48:57;99882.75;;;29.51;27.31
54666;BME280;40566;50.006;36.180;2023-03-23T09:54:04;99884.22;;;29.96;26.95
54666;BME280;40566;50.006;36.180;2023-03-23T09:59:34;99885.88;;;25.39;33.03
54666;BME280;40566;50.006;36.180;2023-03-23T10:09:47;99869.72;;;26.12;30.97
54666;BME280;40566;50.006;36.180;2023-03-23T10:20:45;99864.84;;;31.87;24.41
54666;BME280;40566;50.006;36.180;2023-03-23T10:26:02;99842.56;;;31.48;24.33
54666;BME280;40566;50.006;36.180;2023-03-23T10:31:13;99837.06;;;29.03;27.73
54666;BME280;40566;50.006;36.180;2023-03-23T10:36:21;99828.19;;;28.60;27.53
54666;BME280;40566;50.006;36.180;2023-03-23T10:41:22;99837.16;;;29.95;25.42
54666;BME280;40566;50.006;36.180;2023-03-23T10:46:46;99823.84;;;29.95;25.92
54666;BME280;40566;50.006;36.180;2023-03-23T10:52:01;99816.25;;;33.76;22.32
54666;BME280;40566;50.006;36.180;2023-03-23T10:57:33;99813.38;;;34.00;22.13
54666;BME280;40566;50.006;36.180;2023-03-23T11:02:40;99794.19;;;34.59;21.65
54666;BME280;40566;50.006;36.180;2023-03-23T11:07:49;99806.72;;;35.28;21.19
54666;BME280;40566;50.006;36.180;2023-03-23T11:12:50;99806.06;;;30.93;24.67
54666;BME280;40566;50.006;36.180;2023-03-23T11:17:57;99796.19;;;31.79;23.44
54666;BME280;40566;50.006;36.180;2023-03-23T11:22:58;99805.19;;;33.65;21.33
54666;BME280;40566;50.006;36.180;2023-03-23T11:28:00;99788.47;;;31.84;22.58
54666;BME280;40566;50.006;36.180;2023-03-23T11:33:02;99788.75;;;28.56;26.10
54666;BME280;40566;50.006;36.180;2023-03-23T11:38:03;99792.00;;;29.85;24.37
54666;BME280;40566;50.006;36.180;2023-03-23T11:43:13;99771.13;;;27.39;26.60
54666;BME280;40566;50.006;36.180;2023-03-23T11:53:37;99763.66;;;26.12;27.45
54666;BME280;40566;50.006;36.180;2023-03-23T11:58:39;99752.03;;;28.41;24.90
54666;BME280;40566;50.006;36.180;2023-03-23T12:09:43;99752.50;;;29.05;23.88
54666;BME280;40566;50.006;36.180;2023-03-23T12:25:51;99740.41;;;22.51;30.45
54666;BME280;40566;50.006;36.180;2023-03-23T12:36:14;99734.75;;;20.65;31.71
54666;BME280;40566;50.006;36.180;2023-03-23T12:52:15;99726.91;;;19.73;32.47
54666;BME280;40566;50.006;36.180;2023-03-23T12:57:21;99722.78;;;19.42;32.95
54666;BME280;40566;50.006;36.180;2023-03-23T13:02:28;99718.34;;;18.88;33.38
54666;BME280;40566;50.006;36.180;2023-03-23T13:07:42;99720.78;;;18.62;33.57
54666;BME280;40566;50.006;36.180;2023-03-23T13:12:47;99712.91;;;18.34;34.01
54666;BME280;40566;50.006;36.180;2023-03-23T13:17:58;99708.22;;;18.24;34.43
54666;BME280;40566;50.006;36.180;2023-03-23T13:23:08;99702.97;;;17.96;34.69
54666;BME280;40566;50.006;36.180;2023-03-23T13:28:21;99695.31;;;17.77;35.05
54666;BME280;40566;50.006;36.180;2023-03-23T13:33:29;99699.97;;;18.02;34.68
54666;BME280;40566;50.006;36.180;2023-03-23T13:38:31;99701.59;;;18.19;34.26
54666;BME280;40566;50.006;36.180;2023-03-23T13:43:34;99689.53;;;18.16;34.83
54666;BME280;40566;50.006;36.180;2023-03-23T13:48:49;99688.06;;;18.41;34.53
54666;BME280;40566;50.006;36.180;2023-03-23T13:53:51;99702.78;;;17.99;35.26
54666;BME280;40566;50.006;36.180;2023-03-23T13:59:06;99686.69;;;17.91;35.24
54666;BME280;40566;50.006;36.180;2023-03-23T14:04:14;99692.19;;;17.86;35.17
54666;BME280;40566;50.006;36.180;2023-03-23T14:09:18;99691.78;;;17.78;35.06
54666;BME280;40566;50.006;36.180;2023-03-23T14:14:44;99687.44;;;17.62;35.19
54666;BME280;40566;50.006;36.180;2023-03-23T14:19:53;99686.09;;;17.55;35.19
54666;BME280;40566;50.006;36.180;2023-03-23T14:25:11;99693.81;;;17.42;35.75
54666;BME280;40566;50.006;36.180;2023-03-23T14:30:22;99679.66;;;17.31;35.77
54666;BME280;40566;50.006;36.180;2023-03-23T14:35:34;99677.09;;;16.99;36.51
54666;BME280;40566;50.006;36.180;2023-03-23T14:40:35;99699.63;;;16.68;37.03
54666;BME280;40566;50.006;36.180;2023-03-23T14:45:36;99686.53;;;16.52;37.11
54666;BME280;40566;50.006;36.180;2023-03-23T14:55:42;99673.53;;;16.35;37.83
54666;BME280;40566;50.006;36.180;2023-03-23T15:06:00;99671.59;;;16.05;38.20
54666;BME280;40566;50.006;36.180;2023-03-23T15:11:33;99682.75;;;15.91;38.01
54666;BME280;40566;50.006;36.180;2023-03-23T15:16:33;99677.59;;;15.72;38.72
54666;BME280;40566;50.006;36.180;2023-03-23T15:21:46;99680.19;;;15.55;38.83
54666;BME280;40566;50.006;36.180;2023-03-23T15:26:47;99681.88;;;15.38;38.90
54666;BME280;40566;50.006;36.180;2023-03-23T15:31:53;99679.06;;;15.24;39.33
54666;BME280;40566;50.006;36.180;2023-03-23T15:36:58;99679.81;;;15.08;39.61
54666;BME280;40566;50.006;36.180;2023-03-23T15:41:59;99684.13;;;14.91;40.10
54666;BME280;40566;50.006;36.180;2023-03-23T15:47:19;99682.44;;;14.71;40.20
54666;BME280;40566;50.006;36.180;2023-03-23T15:52:21;99701.41;;;14.54;40.62
54666;BME280;40566;50.006;36.180;2023-03-23T15:57:22;99712.44;;;14.40;40.98
54666;BME280;40566;50.006;36.180;2023-03-23T16:02:23;99697.63;;;14.21;41.92
54666;BME280;40566;50.006;36.180;2023-03-23T16:07:24;99714.09;;;14.01;42.08
54666;BME280;40566;50.006;36.180;2023-03-23T16:12:25;99719.16;;;13.84;42.49
54666;BME280;40566;50.006;36.180;2023-03-23T16:17:26;99719.81;;;13.68;43.50
54666;BME280;40566;50.006;36.180;2023-03-23T16:22:26;99710.09;;;13.52;43.51
54666;BME280;40566;50.006;36.180;2023-03-23T16:27:27;99720.19;;;13.37;43.95
54666;BME280;40566;50.006;36.180;2023-03-23T16:32:28;99724.88;;;13.27;44.52
54666;BME280;40566;50.006;36.180;2023-03-23T16:37:28;99725.47;;;13.12;45.06
54666;BME280;40566;50.006;36.180;2023-03-23T16:42:32;99727.75;;;12.98;45.39
54666;BME280;40566;50.006;36.180;2023-03-23T16:47:33;99735.94;;;12.87;45.98
54666;BME280;40566;50.006;36.180;2023-03-23T16:52:33;99742.38;;;12.77;45.67
54666;BME280;40566;50.006;36.180;2023-03-23T16:57:34;99740.22;;;12.64;45.81
54666;BME280;40566;50.006;36.180;2023-03-23T17:02:37;99747.59;;;12.52;46.62
54666;BME280;40566;50.006;36.180;2023-03-23T17:07:40;99750.47;;;12.44;46.65
54666;BME280;40566;50.006;36.180;2023-03-23T17:12:41;99752.47;;;12.36;46.41
54666;BME280;40566;50.006;36.180;2023-03-23T17:17:43;99759.63;;;12.29;46.85
54666;BME280;40566;50.006;36.180;2023-03-23T17:22:43;99753.00;;;12.20;46.78
54666;BME280;40566;50.006;36.180;2023-03-23T17:27:44;99760.31;;;12.09;47.70
54666;BME280;40566;50.006;36.180;2023-03-23T17:32:44;99757.19;;;11.99;48.26
54666;BME280;40566;50.006;36.180;2023-03-23T17:37:47;99749.66;;;11.92;48.11
54666;BME280;40566;50.006;36.180;2023-03-23T17:42:47;99757.81;;;11.79;48.90
54666;BME280;40566;50.006;36.180;2023-03-23T17:47:48;99750.28;;;11.71;49.24
54666;BME280;40566;50.006;36.180;2023-03-23T17:52:49;99754.94;;;11.62;49.56
54666;BME280;40566;50.006;36.180;2023-03-23T17:57:50;99754.31;;;11.54;50.20
54666;BME280;40566;50.006;36.180;2023-03-23T18:02:50;99744.25;;;11.44;50.37
54666;BME280;40566;50.006;36.180;2023-03-23T18:07:51;99745.38;;;11.36;50.88
54666;BME280;40566;50.006;36.180;2023-03-23T18:12:51;99749.09;;;11.27;51.02
54666;BME280;40566;50.006;36.180;2023-03-23T18:17:52;99749.09;;;11.27;51.13
54666;BME280;40566;50.006;36.180;2023-03-23T18:22:52;99754.31;;;11.25;51.16
54666;BME280;40566;50.006;36.180;2023-03-23T18:27:53;99761.19;;;11.26;51.11
54666;BME280;40566;50.006;36.180;2023-03-23T18:32:54;99762.22;;;11.21;51.17
54666;BME280;40566;50.006;36.180;2023-03-23T18:37:55;99760.72;;;11.14;51.74
54666;BME280;40566;50.006;36.180;2023-03-23T18:42:55;99754.91;;;11.05;52.01
54666;BME280;40566;50.006;36.180;2023-03-23T18:47:56;99744.84;;;10.96;52.12
54666;BME280;40566;50.006;36.180;2023-03-23T18:52:57;99753.63;;;10.90;52.81
54666;BME280;40566;50.006;36.180;2023-03-23T18:57:57;99757.31;;;10.82;52.92
54666;BME280;40566;50.006;36.180;2023-03-23T19:02:59;99754.09;;;10.74;53.19
54666;BME280;40566;50.006;36.180;2023-03-23T19:08:00;99761.28;;;10.64;53.37
54666;BME280;40566;50.006;36.180;2023-03-23T19:13:00;99758.06;;;10.56;53.63
54666;BME280;40566;50.006;36.180;2023-03-23T19:18:01;99757.38;;;10.49;53.81
54666;BME280;40566;50.006;36.180;2023-03-23T19:23:01;99749.91;;;10.38;53.83
54666;BME280;40566;50.006;36.180;2023-03-23T19:28:02;99756.09;;;10.32;53.87
54666;BME280;40566;50.006;36.180;2023-03-23T19:33:02;99756.09;;;10.32;54.18
54666;BME280;40566;50.006;36.180;2023-03-23T19:38:03;99754.56;;;10.24;54.08
54666;BME280;40566;50.006;36.180;2023-03-23T19:43:04;99753.91;;;10.17;54.61
54666;BME280;40566;50.006;36.180;2023-03-23T19:48:04;99751.41;;;10.12;54.61
54666;BME280;40566;50.006;36.180;2023-03-23T19:53:05;99749.81;;;10.07;54.85
54666;BME280;40566;50.006;36.180;2023-03-23T19:58:06;99746.56;;;10.00;54.96
54666;BME280;40566;50.006;36.180;2023-03-23T20:03:07;99743.25;;;9.95;54.94
54666;BME280;40566;50.006;36.180;2023-03-23T20:08:07;99737.34;;;9.90;55.49
54666;BME280;40566;50.006;36.180;2023-03-23T20:13:10;99731.38;;;9.88;55.81
54666;BME280;40566;50.006;36.180;2023-03-23T20:18:10;99738.38;;;9.83;55.91
54666;BME280;40566;50.006;36.180;2023-03-23T20:23:13;99728.31;;;9.73;56.33
54666;BME280;40566;50.006;36.180;2023-03-23T20:28:14;99736.09;;;9.72;56.59
54666;BME280;40566;50.006;36.180;2023-03-23T20:33:14;99729.34;;;9.65;56.58
54666;BME280;40566;50.006;36.180;2023-03-23T20:38:15;99732.91;;;9.61;56.76
54666;BME280;40566;50.006;36.180;2023-03-23T20:43:17;99725.28;;;9.56;56.33
54666;BME280;40566;50.006;36.180;2023-03-23T20:48:18;99723.69;;;9.50;56.77
54666;BME280;40566;50.006;36.180;2023-03-23T20:53:20;99715.19;;;9.45;56.90
54666;BME280;40566;50.006;36.180;2023-03-23T20:58:21;99714.47;;;9.40;57.01
54666;BME280;40566;50.006;36.180;2023-03-23T21:03:42;99699.94;;;9.36;56.57
54666;BME280;40566;50.006;36.180;2023-03-23T21:08:43;99714.66;;;9.31;56.36
54666;BME280;40566;50.006;36.180;2023-03-23T21:13:44;99707.88;;;9.27;56.81
54666;BME280;40566;50.006;36.180;2023-03-23T21:18:45;99707.06;;;9.25;56.78
54666;BME280;40566;50.006;36.180;2023-03-23T21:23:46;99698.56;;;9.20;57.09
54666;BME280;40566;50.006;36.180;2023-03-23T21:28:52;99704.69;;;9.16;57.35
54666;BME280;40566;50.006;36.180;2023-03-23T21:33:53;99699.75;;;9.06;57.54
54666;BME280;40566;50.006;36.180;2023-03-23T21:38:54;99688.69;;;9.01;57.39
54666;BME280;40566;50.006;36.180;2023-03-23T21:43:55;99694.00;;;8.93;57.52
54666;BME280;40566;50.006;36.180;2023-03-23T21:48:56;99696.78;;;8.84;57.69
54666;BME280;40566;50.006;36.180;2023-03-23T21:53:58;99696.91;;;8.78;57.83
54666;BME280;40566;50.006;36.180;2023-03-23T21:58:58;99685.88;;;8.71;57.98
54666;BME280;40566;50.006;36.180;2023-03-23T22:04:01;99680.78;;;8.68;57.62
54666;BME280;40566;50.006;36.180;2023-03-23T22:09:02;99676.53;;;8.66;57.69
54666;BME280;40566;50.006;36.180;2023-03-23T22:14:05;99677.53;;;8.59;58.05
54666;BME280;40566;50.006;36.180;2023-03-23T22:19:06;99691.34;;;8.56;58.15
54666;BME280;40566;50.006;36.180;2023-03-23T22:24:06;99676.78;;;8.55;58.17
54666;BME280;40566;50.006;36.180;2023-03-23T22:29:07;99682.84;;;8.51;58.30
54666;BME280;40566;50.006;36.180;2023-03-23T22:34:11;99677.00;;;8.44;58.61
54666;BME280;40566;50.006;36.180;2023-03-23T22:39:11;99677.06;;;8.40;58.49
54666;BME280;40566;50.006;36.180;2023-03-23T22:44:14;99655.63;;;8.38;58.24
54666;BME280;40566;50.006;36.180;2023-03-23T22:49:17;99674.59;;;8.33;58.74
54666;BME280;40566;50.006;36.180;2023-03-23T22:54:18;99669.66;;;8.21;58.53
54666;BME280;40566;50.006;36.180;2023-03-23T22:59:18;99667.09;;;8.21;58.72
54666;BME280;40566;50.006;36.180;2023-03-23T23:04:19;99665.38;;;8.22;58.81
54666;BME280;40566;50.006;36.180;2023-03-23T23:09:20;99653.66;;;8.05;58.81
54666;BME280;40566;50.006;36.180;2023-03-23T23:14:21;99665.56;;;8.11;59.23
54666;BME280;40566;50.006;36.180;2023-03-23T23:19:22;99667.41;;;8.06;59.35
54666;BME280;40566;50.006;36.180;2023-03-23T23:24:22;99660.56;;;8.03;59.44
54666;BME280;40566;50.006;36.180;2023-03-23T23:29:25;99655.56;;;7.95;59.72
54666;BME280;40566;50.006;36.180;2023-03-23T23:34:26;99660.81;;;7.91;59.42
54666;BME280;40566;50.006;36.180;2023-03-23T23:39:27;99662.66;;;7.84;59.44
54666;BME280;40566;50.006;36.180;2023-03-23T23:44:29;99656.84;;;7.71;59.36
54666;BME280;40566;50.006;36.180;2023-03-23T23:49:30;99656.97;;;7.65;59.33
54666;BME280;40566;50.006;36.180;2023-03-23T23:54:34;99657.69;;;7.72;59.60
54666;BME280;40566;50.006;36.180;2023-03-23T23:59:36;99649.34;;;7.59;59.56
